Padre Island — WDB4436 — position and weather

sailwx.info

Track history (hours):
 
Tides and Currents Weather Stations Pressure Air Temp Water Temp Dewpoint Dewpoint Depression Visibility Wind Speed Wind Dir Waves Ship Positions

Padre Island

Owner: Great Lakes Dredge & Dock Company, Oak Brook, IL. More information available from US FCC via Universal Licensing System and Coast Guard Vessel Documentation Center.

Last reported at 2017-Apr-24 21:54 UTC. Time now 2017-Apr-25 00:52 UTC.
Position N 36°58' W 076°07'.

Length 86 m; draft 19.6 m.

Type: Dredging. MMSI: 367525000.

Date/timePositionNaut miles runAvg speedWind from/ knotsBaromVisibWave heightAir tempDewpointWater temp
2017-Apr-24 21:54N 36°58' W 076°07'1 2.2
2017-Apr-24 21:19N 36°58' W 076°06'0 0.9
2017-Apr-24 20:59N 36°58' W 076°06'1 2.1
2017-Apr-24 20:30N 36°58' W 076°05'1 1.5
2017-Apr-24 20:00N 36°58' W 076°06'7 2.9
2017-Apr-24 17:26N 36°58' W 076°15'7 4.9
2017-Apr-24 16:04N 36°58' W 076°06'1 5.7
2017-Apr-24 15:58N 36°58' W 076°06'0 0.2
2017-Apr-24 15:30N 36°58' W 076°06'0 0.3
2017-Apr-24 14:58N 36°58' W 076°06'0 0.4
2017-Apr-24 14:25N 36°58' W 076°05'2 0.4
2017-Apr-24 09:44N 36°57' W 076°03'0 1.0
2017-Apr-24 09:21N 36°58' W 076°04'1 1.4
2017-Apr-24 08:59N 36°58' W 076°04'1 1.4
2017-Apr-24 08:24N 36°58' W 076°05'1 0.1
2017-Apr-24 03:30N 36°58' W 076°06'1 0.6
2017-Apr-24 01:57N 36°58' W 076°05'4 1.2
2017-Apr-23 22:38N 36°59' W 076°10'3 9.3
2017-Apr-23 22:18N 36°58' W 076°06'3 9.3
2017-Apr-23 22:00N 36°57' W 076°03'0 0.5
2017-Apr-23 21:30N 36°57' W 076°03'1 1.5
2017-Apr-23 21:00N 36°58' W 076°04'1 0.3
2017-Apr-23 15:48N 36°58' W 076°06'0 0.7
2017-Apr-23 15:29N 36°58' W 076°05'0 0.4
2017-Apr-23 14:41N 36°58' W 076°05'0 0.5
2017-Apr-23 14:27N 36°58' W 076°05'8 2.7
2017-Apr-23 11:38N 36°58' W 076°14'0 0.6
2017-Apr-23 11:30N 36°58' W 076°14'7 2.7
2017-Apr-23 08:55N 36°58' W 076°06'1 0.7
2017-Apr-23 08:15N 36°58' W 076°05'0 0.3
2017-Apr-23 07:53N 36°58' W 076°05'0 0.1
2017-Apr-23 07:30N 36°58' W 076°05'0 0.7
2017-Apr-23 07:00N 36°57' W 076°05'1 1.1
2017-Apr-23 06:18N 36°58' W 076°04'0 0.7
2017-Apr-23 05:50N 36°57' W 076°03'1 0.8
2017-Apr-23 05:12N 36°57' W 076°03'0 1.1
2017-Apr-23 05:00N 36°57' W 076°03'1 2.5
2017-Apr-23 04:27N 36°58' W 076°05'0 0.0
2017-Apr-23 03:06N 36°58' W 076°05'1 5.2
2017-Apr-23 02:59N 36°58' W 076°06'1 0.2
2017-Apr-22 23:05N 36°58' W 076°06'1 9.2
2017-Apr-22 23:00N 36°58' W 076°06'0 0.5
2017-Apr-22 22:23N 36°58' W 076°05'0 0.3
2017-Apr-22 22:00N 36°58' W 076°05'0 0.4
2017-Apr-22 21:30N 36°58' W 076°06'3 0.9
2017-Apr-22 17:47N 36°59' W 076°10'2 8.1
2017-Apr-22 17:30N 36°58' W 076°07'1 1.8
2017-Apr-22 16:57N 36°58' W 076°06'0 0.0
2017-Apr-22 16:27N 36°58' W 076°06'0 0.4
2017-Apr-22 16:00N 36°58' W 076°06'1 0.8
2017-Apr-22 14:56N 36°58' W 076°05'8 2.9
2017-Apr-22 12:08N 36°58' W 076°15'0 0.0
2017-Apr-22 12:00N 36°58' W 076°15'0 0.1
2017-Apr-22 11:29N 36°58' W 076°15'0 0.0
2017-Apr-22 10:58N 36°58' W 076°15'8 1.3
2017-Apr-22 05:08N 36°58' W 076°05'0 0.4
2017-Apr-22 04:32N 36°58' W 076°06'0 0.1
2017-Apr-22 04:26N 36°58' W 076°06'0 0.2
2017-Apr-22 04:00N 36°58' W 076°06'1 0.2
2017-Apr-22 00:07N 36°58' W 076°05'1 0.5
2017-Apr-21 22:56N 36°58' W 076°06'0 0.5
2017-Apr-21 22:30N 36°58' W 076°06'0 0.1
2017-Apr-21 18:45N 36°58' W 076°06'1 2.4
2017-Apr-21 18:28N 36°58' W 076°06'0 0.8
2017-Apr-21 18:00N 36°58' W 076°05'0 0.1
2017-Apr-21 17:12N 36°58' W 076°05'0 1.8
2017-Apr-21 16:55N 36°58' W 076°06'1 1.0
2017-Apr-21 16:23N 36°58' W 076°05'1 2.7
2017-Apr-21 16:00N 36°57' W 076°04'1 1.5
2017-Apr-21 15:30N 36°58' W 076°05'0 0.8
2017-Apr-21 14:54N 36°58' W 076°05'0 0.6
2017-Apr-21 14:25N 36°58' W 076°05'0 0.1
2017-Apr-21 10:46N 36°58' W 076°05'0 0.7
2017-Apr-21 10:11N 36°58' W 076°05'0 0.5
2017-Apr-21 09:38N 36°58' W 076°06'0 0.3
2017-Apr-21 09:30N 36°58' W 076°06'2 0.5
2017-Apr-21 04:07N 36°57' W 076°03'1 2.3
2017-Apr-21 03:49N 36°57' W 076°02'3 9.7
2017-Apr-21 03:29N 36°58' W 076°06'1 0.3
2017-Apr-20 23:31N 36°58' W 076°04'0 6.0
2017-Apr-20 23:30N 36°58' W 076°04'1 0.9
2017-Apr-20 22:52N 36°58' W 076°05'0 0.7
2017-Apr-20 22:28N 36°58' W 076°05'0 0.7
2017-Apr-20 21:58N 36°58' W 076°06'0 0.6
2017-Apr-20 21:30N 36°58' W 076°06'1 2.8
2017-Apr-20 20:59N 36°57' W 076°05'0 0.2
2017-Apr-20 20:30N 36°57' W 076°05'0 0.5
2017-Apr-20 20:00N 36°57' W 076°04'0 0.4
2017-Apr-20 19:30N 36°57' W 076°05'0 0.7
2017-Apr-20 19:00N 36°57' W 076°04'0 0.6
2017-Apr-20 18:30N 36°57' W 076°04'0 0.2
2017-Apr-20 17:59N 36°57' W 076°04'0 0.6
2017-Apr-20 17:30N 36°57' W 076°03'0 0.7
2017-Apr-20 17:00N 36°57' W 076°04'1 1.7
2017-Apr-20 16:27N 36°58' W 076°05'0 0.7
2017-Apr-20 15:56N 36°58' W 076°05'0 0.6
2017-Apr-20 15:29N 36°58' W 076°05'8 7.6
2017-Apr-20 14:26N 36°58' W 076°15'0 0.1
2017-Apr-20 13:22N 36°58' W 076°15'8 6.0
2017-Apr-20 12:03N 36°58' W 076°05'0 7.4
2017-Apr-20 11:59N 36°58' W 076°04'1 0.9
2017-Apr-20 11:11N 36°58' W 076°05'0 0.7
2017-Apr-20 10:53N 36°58' W 076°06'0 0.3
2017-Apr-20 10:30N 36°58' W 076°06'2 0.4
2017-Apr-20 06:25N 36°58' W 076°04'1 0.1
2017-Apr-19 23:53N 36°58' W 076°05'8 8.1
2017-Apr-19 22:54N 36°58' W 076°15'2 1.1
2017-Apr-19 21:25N 36°57' W 076°13'7 6.8
2017-Apr-19 20:20N 36°58' W 076°04'1 1.0
2017-Apr-19 19:08N 36°58' W 076°06'0 0.6
2017-Apr-19 19:00N 36°58' W 076°06'1 0.2
2017-Apr-19 14:05N 36°58' W 076°05'1 1.0
2017-Apr-19 13:30N 36°58' W 076°04'1 0.2
2017-Apr-19 09:36N 36°57' W 076°03'0 1.0
2017-Apr-19 09:23N 36°57' W 076°03'1 0.1
2017-Apr-18 23:13N 36°58' W 076°04'1 5.8
2017-Apr-18 22:59N 36°57' W 076°02'0 0.6
2017-Apr-18 22:30N 36°57' W 076°03'0 0.6
2017-Apr-18 21:59N 36°57' W 076°03'2 0.4
2017-Apr-18 17:35N 36°58' W 076°05'0 0.8
2017-Apr-18 17:19N 36°58' W 076°05'0 0.8
2017-Apr-18 16:55N 36°58' W 076°06'0 0.5
2017-Apr-18 16:30N 36°58' W 076°06'1 0.4
2017-Apr-18 12:52N 36°58' W 076°04'1 2.5
2017-Apr-18 12:25N 36°57' W 076°03'0 0.8
2017-Apr-18 12:00N 36°57' W 076°03'0 0.4
2017-Apr-18 11:29N 36°57' W 076°02'2 0.4
2017-Apr-18 07:42N 36°58' W 076°04'1 4.1
2017-Apr-18 07:27N 36°57' W 076°03'2 1.1
2017-Apr-18 05:51N 36°58' W 076°05'0 1.0
2017-Apr-18 05:30N 36°58' W 076°06'2 0.5
2017-Apr-18 01:00N 36°57' W 076°03'0 0.6
2017-Apr-18 00:29N 36°57' W 076°03'0 0.5
2017-Apr-17 23:51N 36°57' W 076°02'1010.1
2017-Apr-17 22:52N 36°58' W 076°15'0 0.1
2017-Apr-17 22:20N 36°58' W 076°15'0 0.0
2017-Apr-17 21:58N 36°58' W 076°15'4 4.4
2017-Apr-17 21:03N 36°59' W 076°10'0 8.2
2017-Apr-17 21:00N 36°59' W 076°10'4 5.3
2017-Apr-17 20:15N 36°58' W 076°05'0 1.3
2017-Apr-17 19:58N 36°58' W 076°04'1 1.4
2017-Apr-17 19:24N 36°57' W 076°03'0 1.0
2017-Apr-17 19:00N 36°57' W 076°03'1 1.4
2017-Apr-17 18:27N 36°57' W 076°04'9 8.7
2017-Apr-17 17:27N 36°58' W 076°15'0 0.2
2017-Apr-17 16:45N 36°58' W 076°15'7 3.7
2017-Apr-17 14:56N 36°58' W 076°06'1 1.3
2017-Apr-17 13:54N 36°58' W 076°05'0 1.2
2017-Apr-17 13:30N 36°58' W 076°04'0 0.9
2017-Apr-17 13:01N 36°58' W 076°04'6 9.5
2017-Apr-17 12:20N 36°58' W 076°12'2 3.7
2017-Apr-17 11:44N 36°58' W 076°15'0 0.2
2017-Apr-17 11:30N 36°58' W 076°15'10 2.4
2017-Apr-17 07:32N 36°57' W 076°02'0 2.7
2017-Apr-17 07:30N 36°57' W 076°02'0 0.0
2017-Apr-17 03:45N 36°57' W 076°02'0 1.0
2017-Apr-17 03:22N 36°57' W 076°03'0 0.8
2017-Apr-17 03:00N 36°57' W 076°03'5 1.3
2017-Apr-16 23:30N 36°59' W 076°09'2 4.7
2017-Apr-16 23:00N 36°58' W 076°06'0 0.6
2017-Apr-16 22:13N 36°58' W 076°05'0 0.5
2017-Apr-16 21:55N 36°58' W 076°05'0 0.6
2017-Apr-16 21:30N 36°58' W 076°05'7 3.1
2017-Apr-16 19:17N 36°57' W 076°13'2 8.0
2017-Apr-16 19:00N 36°56' W 076°11'4 6.4
2017-Apr-16 18:20N 36°58' W 076°06'1 3.9
2017-Apr-16 17:59N 36°58' W 076°04'1 0.9
2017-Apr-16 17:20N 36°58' W 076°05'0 0.8
2017-Apr-16 16:46N 36°58' W 076°06'0 0.5
2017-Apr-16 16:30N 36°58' W 076°06'7 5.6
2017-Apr-16 15:15N 36°58' W 076°15'0 0.1
2017-Apr-16 14:50N 36°58' W 076°15'1 1.2
2017-Apr-16 13:54N 36°57' W 076°13'4 5.9
2017-Apr-16 13:10N 36°59' W 076°08'2 8.2
2017-Apr-16 12:58N 36°58' W 076°06'3 6.7
2017-Apr-16 12:30N 36°57' W 076°03'0 0.4
2017-Apr-16 12:00N 36°57' W 076°02'0 0.4
2017-Apr-16 11:27N 36°57' W 076°02'0 0.0
2017-Apr-16 01:23N 36°57' W 076°03'0 0.5
2017-Apr-16 00:59N 36°57' W 076°03'0 0.5
2017-Apr-16 00:24N 36°57' W 076°02'1 0.1
2017-Apr-15 06:28N 36°58' W 076°04'1 2.9
2017-Apr-15 05:59N 36°57' W 076°02'0 0.6
2017-Apr-15 05:30N 36°57' W 076°03'3 1.6
2017-Apr-15 03:56N 36°58' W 076°06'3 0.6
2017-Apr-14 23:38N 36°57' W 076°02'0 0.2
2017-Apr-14 23:29N 36°57' W 076°02'8 9.4
2017-Apr-14 22:36N 36°58' W 076°13'1 9.9
2017-Apr-14 22:28N 36°58' W 076°14'  
Track history (hours):
 
Tides and Currents Weather Stations Pressure Air Temp Water Temp Dewpoint Dewpoint Depression Visibility Wind Speed Wind Dir Waves Ship Positions

Padre Island

Owner: Great Lakes Dredge & Dock Company, Oak Brook, IL. More information available from US FCC via Universal Licensing System and Coast Guard Vessel Documentation Center.

Last reported at 2017-Apr-24 21:54 UTC. Time now 2017-Apr-25 00:52 UTC.
Position N 36°58' W 076°07'.

Length 86 m; draft 19.6 m.

Type: Dredging. MMSI: 367525000.

Date/timePositionNaut miles runAvg speedWind from/ knotsBaromVisibWave heightAir tempDewpointWater temp
2017-Apr-24 21:54N 36°58' W 076°07'1 2.2
2017-Apr-24 21:19N 36°58' W 076°06'0 0.9
2017-Apr-24 20:59N 36°58' W 076°06'1 2.1
2017-Apr-24 20:30N 36°58' W 076°05'1 1.5
2017-Apr-24 20:00N 36°58' W 076°06'7 2.9
2017-Apr-24 17:26N 36°58' W 076°15'7 4.9
2017-Apr-24 16:04N 36°58' W 076°06'1 5.7
2017-Apr-24 15:58N 36°58' W 076°06'0 0.2
2017-Apr-24 15:30N 36°58' W 076°06'0 0.3
2017-Apr-24 14:58N 36°58' W 076°06'0 0.4
2017-Apr-24 14:25N 36°58' W 076°05'2 0.4
2017-Apr-24 09:44N 36°57' W 076°03'0 1.0
2017-Apr-24 09:21N 36°58' W 076°04'1 1.4
2017-Apr-24 08:59N 36°58' W 076°04'1 1.4
2017-Apr-24 08:24N 36°58' W 076°05'1 0.1
2017-Apr-24 03:30N 36°58' W 076°06'1 0.6
2017-Apr-24 01:57N 36°58' W 076°05'4 1.2
2017-Apr-23 22:38N 36°59' W 076°10'3 9.3
2017-Apr-23 22:18N 36°58' W 076°06'3 9.3
2017-Apr-23 22:00N 36°57' W 076°03'0 0.5
2017-Apr-23 21:30N 36°57' W 076°03'1 1.5
2017-Apr-23 21:00N 36°58' W 076°04'1 0.3
2017-Apr-23 15:48N 36°58' W 076°06'0 0.7
2017-Apr-23 15:29N 36°58' W 076°05'0 0.4
2017-Apr-23 14:41N 36°58' W 076°05'0 0.5
2017-Apr-23 14:27N 36°58' W 076°05'8 2.7
2017-Apr-23 11:38N 36°58' W 076°14'0 0.6
2017-Apr-23 11:30N 36°58' W 076°14'7 2.7
2017-Apr-23 08:55N 36°58' W 076°06'1 0.7
2017-Apr-23 08:15N 36°58' W 076°05'0 0.3
2017-Apr-23 07:53N 36°58' W 076°05'0 0.1
2017-Apr-23 07:30N 36°58' W 076°05'0 0.7
2017-Apr-23 07:00N 36°57' W 076°05'1 1.1
2017-Apr-23 06:18N 36°58' W 076°04'0 0.7
2017-Apr-23 05:50N 36°57' W 076°03'1 0.8
2017-Apr-23 05:12N 36°57' W 076°03'0 1.1
2017-Apr-23 05:00N 36°57' W 076°03'1 2.5
2017-Apr-23 04:27N 36°58' W 076°05'0 0.0
2017-Apr-23 03:06N 36°58' W 076°05'1 5.2
2017-Apr-23 02:59N 36°58' W 076°06'1 0.2
2017-Apr-22 23:05N 36°58' W 076°06'1 9.2
2017-Apr-22 23:00N 36°58' W 076°06'0 0.5
2017-Apr-22 22:23N 36°58' W 076°05'0 0.3
2017-Apr-22 22:00N 36°58' W 076°05'0 0.4
2017-Apr-22 21:30N 36°58' W 076°06'3 0.9
2017-Apr-22 17:47N 36°59' W 076°10'2 8.1
2017-Apr-22 17:30N 36°58' W 076°07'1 1.8
2017-Apr-22 16:57N 36°58' W 076°06'0 0.0
2017-Apr-22 16:27N 36°58' W 076°06'0 0.4
2017-Apr-22 16:00N 36°58' W 076°06'1 0.8
2017-Apr-22 14:56N 36°58' W 076°05'8 2.9
2017-Apr-22 12:08N 36°58' W 076°15'0 0.0
2017-Apr-22 12:00N 36°58' W 076°15'0 0.1
2017-Apr-22 11:29N 36°58' W 076°15'0 0.0
2017-Apr-22 10:58N 36°58' W 076°15'8 1.3
2017-Apr-22 05:08N 36°58' W 076°05'0 0.4
2017-Apr-22 04:32N 36°58' W 076°06'0 0.1
2017-Apr-22 04:26N 36°58' W 076°06'0 0.2
2017-Apr-22 04:00N 36°58' W 076°06'1 0.2
2017-Apr-22 00:07N 36°58' W 076°05'1 0.5
2017-Apr-21 22:56N 36°58' W 076°06'0 0.5
2017-Apr-21 22:30N 36°58' W 076°06'0 0.1
2017-Apr-21 18:45N 36°58' W 076°06'1 2.4
2017-Apr-21 18:28N 36°58' W 076°06'0 0.8
2017-Apr-21 18:00N 36°58' W 076°05'0 0.1
2017-Apr-21 17:12N 36°58' W 076°05'0 1.8
2017-Apr-21 16:55N 36°58' W 076°06'1 1.0
2017-Apr-21 16:23N 36°58' W 076°05'1 2.7
2017-Apr-21 16:00N 36°57' W 076°04'1 1.5
2017-Apr-21 15:30N 36°58' W 076°05'0 0.8
2017-Apr-21 14:54N 36°58' W 076°05'0 0.6
2017-Apr-21 14:25N 36°58' W 076°05'0 0.1
2017-Apr-21 10:46N 36°58' W 076°05'0 0.7
2017-Apr-21 10:11N 36°58' W 076°05'0 0.5
2017-Apr-21 09:38N 36°58' W 076°06'0 0.3
2017-Apr-21 09:30N 36°58' W 076°06'2 0.5
2017-Apr-21 04:07N 36°57' W 076°03'1 2.3
2017-Apr-21 03:49N 36°57' W 076°02'3 9.7
2017-Apr-21 03:29N 36°58' W 076°06'1 0.3
2017-Apr-20 23:31N 36°58' W 076°04'0 6.0
2017-Apr-20 23:30N 36°58' W 076°04'1 0.9
2017-Apr-20 22:52N 36°58' W 076°05'0 0.7
2017-Apr-20 22:28N 36°58' W 076°05'0 0.7
2017-Apr-20 21:58N 36°58' W 076°06'0 0.6
2017-Apr-20 21:30N 36°58' W 076°06'1 2.8
2017-Apr-20 20:59N 36°57' W 076°05'0 0.2
2017-Apr-20 20:30N 36°57' W 076°05'0 0.5
2017-Apr-20 20:00N 36°57' W 076°04'0 0.4
2017-Apr-20 19:30N 36°57' W 076°05'0 0.7
2017-Apr-20 19:00N 36°57' W 076°04'0 0.6
2017-Apr-20 18:30N 36°57' W 076°04'0 0.2
2017-Apr-20 17:59N 36°57' W 076°04'0 0.6
2017-Apr-20 17:30N 36°57' W 076°03'0 0.7
2017-Apr-20 17:00N 36°57' W 076°04'1 1.7
2017-Apr-20 16:27N 36°58' W 076°05'0 0.7
2017-Apr-20 15:56N 36°58' W 076°05'0 0.6
2017-Apr-20 15:29N 36°58' W 076°05'8 7.6
2017-Apr-20 14:26N 36°58' W 076°15'0 0.1
2017-Apr-20 13:22N 36°58' W 076°15'8 6.0
2017-Apr-20 12:03N 36°58' W 076°05'0 7.4
2017-Apr-20 11:59N 36°58' W 076°04'1 0.9
2017-Apr-20 11:11N 36°58' W 076°05'0 0.7
2017-Apr-20 10:53N 36°58' W 076°06'0 0.3
2017-Apr-20 10:30N 36°58' W 076°06'2 0.4
2017-Apr-20 06:25N 36°58' W 076°04'1 0.1
2017-Apr-19 23:53N 36°58' W 076°05'8 8.1
2017-Apr-19 22:54N 36°58' W 076°15'2 1.1
2017-Apr-19 21:25N 36°57' W 076°13'7 6.8
2017-Apr-19 20:20N 36°58' W 076°04'1 1.0
2017-Apr-19 19:08N 36°58' W 076°06'0 0.6
2017-Apr-19 19:00N 36°58' W 076°06'1 0.2
2017-Apr-19 14:05N 36°58' W 076°05'1 1.0
2017-Apr-19 13:30N 36°58' W 076°04'1 0.2
2017-Apr-19 09:36N 36°57' W 076°03'0 1.0
2017-Apr-19 09:23N 36°57' W 076°03'1 0.1
2017-Apr-18 23:13N 36°58' W 076°04'1 5.8
2017-Apr-18 22:59N 36°57' W 076°02'0 0.6
2017-Apr-18 22:30N 36°57' W 076°03'0 0.6
2017-Apr-18 21:59N 36°57' W 076°03'2 0.4
2017-Apr-18 17:35N 36°58' W 076°05'0 0.8
2017-Apr-18 17:19N 36°58' W 076°05'0 0.8
2017-Apr-18 16:55N 36°58' W 076°06'0 0.5
2017-Apr-18 16:30N 36°58' W 076°06'1 0.4
2017-Apr-18 12:52N 36°58' W 076°04'1 2.5
2017-Apr-18 12:25N 36°57' W 076°03'0 0.8
2017-Apr-18 12:00N 36°57' W 076°03'0 0.4
2017-Apr-18 11:29N 36°57' W 076°02'2 0.4
2017-Apr-18 07:42N 36°58' W 076°04'1 4.1
2017-Apr-18 07:27N 36°57' W 076°03'2 1.1
2017-Apr-18 05:51N 36°58' W 076°05'0 1.0
2017-Apr-18 05:30N 36°58' W 076°06'2 0.5
2017-Apr-18 01:00N 36°57' W 076°03'0 0.6
2017-Apr-18 00:29N 36°57' W 076°03'0 0.5
2017-Apr-17 23:51N 36°57' W 076°02'1010.1
2017-Apr-17 22:52N 36°58' W 076°15'0 0.1
2017-Apr-17 22:20N 36°58' W 076°15'0 0.0
2017-Apr-17 21:58N 36°58' W 076°15'4 4.4
2017-Apr-17 21:03N 36°59' W 076°10'0 8.2
2017-Apr-17 21:00N 36°59' W 076°10'4 5.3
2017-Apr-17 20:15N 36°58' W 076°05'0 1.3
2017-Apr-17 19:58N 36°58' W 076°04'1 1.4
2017-Apr-17 19:24N 36°57' W 076°03'0 1.0
2017-Apr-17 19:00N 36°57' W 076°03'1 1.4
2017-Apr-17 18:27N 36°57' W 076°04'9 8.7
2017-Apr-17 17:27N 36°58' W 076°15'0 0.2
2017-Apr-17 16:45N 36°58' W 076°15'7 3.7
2017-Apr-17 14:56N 36°58' W 076°06'1 1.3
2017-Apr-17 13:54N 36°58' W 076°05'0 1.2
2017-Apr-17 13:30N 36°58' W 076°04'0 0.9
2017-Apr-17 13:01N 36°58' W 076°04'6 9.5
2017-Apr-17 12:20N 36°58' W 076°12'2 3.7
2017-Apr-17 11:44N 36°58' W 076°15'0 0.2
2017-Apr-17 11:30N 36°58' W 076°15'10 2.4
2017-Apr-17 07:32N 36°57' W 076°02'0 2.7
2017-Apr-17 07:30N 36°57' W 076°02'0 0.0
2017-Apr-17 03:45N 36°57' W 076°02'0 1.0
2017-Apr-17 03:22N 36°57' W 076°03'0 0.8
2017-Apr-17 03:00N 36°57' W 076°03'5 1.3
2017-Apr-16 23:30N 36°59' W 076°09'2 4.7
2017-Apr-16 23:00N 36°58' W 076°06'0 0.6
2017-Apr-16 22:13N 36°58' W 076°05'0 0.5
2017-Apr-16 21:55N 36°58' W 076°05'0 0.6
2017-Apr-16 21:30N 36°58' W 076°05'7 3.1
2017-Apr-16 19:17N 36°57' W 076°13'2 8.0
2017-Apr-16 19:00N 36°56' W 076°11'4 6.4
2017-Apr-16 18:20N 36°58' W 076°06'1 3.9
2017-Apr-16 17:59N 36°58' W 076°04'1 0.9
2017-Apr-16 17:20N 36°58' W 076°05'0 0.8
2017-Apr-16 16:46N 36°58' W 076°06'0 0.5
2017-Apr-16 16:30N 36°58' W 076°06'7 5.6
2017-Apr-16 15:15N 36°58' W 076°15'0 0.1
2017-Apr-16 14:50N 36°58' W 076°15'1 1.2
2017-Apr-16 13:54N 36°57' W 076°13'4 5.9
2017-Apr-16 13:10N 36°59' W 076°08'2 8.2
2017-Apr-16 12:58N 36°58' W 076°06'3 6.7
2017-Apr-16 12:30N 36°57' W 076°03'0 0.4
2017-Apr-16 12:00N 36°57' W 076°02'0 0.4
2017-Apr-16 11:27N 36°57' W 076°02'0 0.0
2017-Apr-16 01:23N 36°57' W 076°03'0 0.5
2017-Apr-16 00:59N 36°57' W 076°03'0 0.5
2017-Apr-16 00:24N 36°57' W 076°02'1 0.1
2017-Apr-15 06:28N 36°58' W 076°04'1 2.9
2017-Apr-15 05:59N 36°57' W 076°02'0 0.6
2017-Apr-15 05:30N 36°57' W 076°03'3 1.6
2017-Apr-15 03:56N 36°58' W 076°06'3 0.6
2017-Apr-14 23:38N 36°57' W 076°02'0 0.2
2017-Apr-14 23:29N 36°57' W 076°02'8 9.4
2017-Apr-14 22:36N 36°58' W 076°13'1 9.9
2017-Apr-14 22:28N 36°58' W 076°14'  

Dump ship's entire track history